Aviation Digital Data Service (ADDS)

Output produced by METARs form (2112 UTC 09 December 2016)
found at http://www.aviationweather.gov/adds/metars/
 
KMIV 092054Z AUTO 30015G22KT 10SM BKN055 03/M08 A3025 RMK AO2 PK WND 30026/2030 SLP243 T00331078 53014
KMIV 091739Z 0918/1018 32015G25KT P6SM SCT050 
     TEMPO 0918/0922 BKN050 
     FM092200 30008KT P6SM SCT050 
     FM100600 29005KT P6SM SCT200 
     FM101700 29010G17KT P6SM SCT050